createdAt,value
2022-10-02T00:02:21.355Z,4.25
2022-10-02T00:05:27.933Z,3.95
2022-10-02T00:08:14.824Z,3.97
2022-10-02T00:10:57.410Z,3.90
2022-10-02T00:13:46.952Z,4.25
2022-10-02T00:16:24.429Z,4.18
2022-10-02T00:18:55.104Z,4.00
2022-10-02T00:21:43.972Z,3.97
2022-10-02T00:24:26.232Z,4.25
2022-10-02T00:27:00.765Z,5.20
2022-10-02T00:29:40.217Z,7.30
2022-10-02T00:32:19.866Z,5.40
2022-10-02T00:35:25.143Z,4.93
2022-10-02T00:38:12.449Z,5.22
2022-10-02T00:40:48.216Z,4.97
2022-10-02T00:43:37.020Z,4.65
2022-10-02T00:46:37.256Z,4.47
2022-10-02T00:49:25.216Z,4.50
2022-10-02T00:52:02.848Z,4.40
2022-10-02T00:54:48.351Z,4.45
2022-10-02T00:57:30.085Z,4.55
2022-10-02T01:00:13.247Z,5.07
2022-10-02T01:03:11.013Z,4.53
2022-10-02T01:05:38.188Z,4.32
2022-10-02T01:08:06.308Z,5.18
2022-10-02T01:10:35.011Z,4.70
2022-10-02T01:13:02.074Z,4.43
2022-10-02T01:15:51.237Z,5.03
2022-10-02T01:18:18.853Z,4.75
2022-10-02T01:20:48.599Z,5.22
2022-10-02T01:23:46.083Z,4.43
2022-10-02T01:26:13.340Z,5.25
2022-10-02T01:28:40.903Z,4.07
2022-10-02T01:31:10.719Z,4.57
2022-10-02T01:33:41.638Z,4.88
2022-10-02T01:36:10.220Z,4.38
2022-10-02T01:38:39.753Z,4.05
2022-10-02T01:41:08.026Z,4.05
2022-10-02T01:43:39.653Z,3.67
2022-10-02T01:46:15.563Z,4.10
2022-10-02T01:48:47.265Z,4.40
2022-10-02T01:51:47.627Z,4.22
2022-10-02T01:54:33.861Z,3.95
2022-10-02T01:57:01.082Z,4.13
2022-10-02T01:59:39.699Z,4.88
2022-10-02T02:02:34.092Z,3.60
2022-10-02T02:05:12.275Z,3.90
2022-10-02T02:08:02.115Z,4.05
2022-10-02T02:11:06.480Z,3.97
2022-10-02T02:14:08.699Z,3.50
2022-10-02T02:16:43.325Z,3.70
2022-10-02T02:19:25.750Z,3.70
2022-10-02T02:21:58.494Z,3.33
2022-10-02T02:24:31.244Z,3.53
2022-10-02T02:27:02.176Z,3.60
2022-10-02T02:29:33.735Z,3.30
2022-10-02T02:32:05.780Z,3.83
2022-10-02T02:34:38.771Z,2.90
2022-10-02T02:37:11.847Z,3.33
2022-10-02T02:39:46.884Z,3.90
2022-10-02T02:42:17.970Z,3.55
2022-10-02T02:44:54.907Z,3.33
2022-10-02T02:47:32.122Z,3.30
2022-10-02T02:50:04.441Z,3.33
2022-10-02T02:52:44.320Z,2.90
2022-10-02T02:55:19.647Z,3.13
2022-10-02T02:57:56.747Z,3.13
2022-10-02T03:00:25.067Z,3.28
2022-10-02T03:02:54.597Z,3.40
2022-10-02T03:05:24.300Z,3.78
2022-10-02T03:07:54.848Z,3.55
2022-10-02T03:10:30.232Z,3.38
2022-10-02T03:13:23.738Z,3.50
2022-10-02T03:16:11.893Z,3.20
2022-10-02T03:19:07.884Z,3.30
2022-10-02T03:22:08.503Z,3.30
2022-10-02T03:24:47.375Z,3.55
2022-10-02T03:27:42.116Z,3.22
2022-10-02T03:30:11.679Z,3.33
2022-10-02T03:32:41.487Z,3.00
2022-10-02T03:35:13.227Z,3.15
2022-10-02T03:37:45.328Z,3.17
2022-10-02T03:40:12.629Z,3.00
2022-10-02T03:42:40.234Z,3.08
2022-10-02T03:45:07.684Z,3.28
2022-10-02T03:47:35.074Z,3.10
2022-10-02T03:50:01.995Z,2.97
2022-10-02T03:52:32.556Z,2.88
2022-10-02T03:55:03.904Z,2.67
2022-10-02T03:57:33.998Z,2.80
2022-10-02T04:00:12.551Z,2.72
2022-10-02T04:02:44.703Z,2.90
2022-10-02T04:05:19.174Z,2.28
2022-10-02T04:07:52.791Z,2.33
2022-10-02T04:10:37.164Z,2.30
2022-10-02T04:13:24.836Z,2.20
2022-10-02T04:16:08.726Z,2.15
2022-10-02T04:19:28.295Z,3.05
2022-10-02T04:22:14.055Z,2.17
2022-10-02T04:24:51.851Z,2.20
2022-10-02T04:27:33.478Z,1.92
2022-10-02T04:30:06.886Z,2.10
2022-10-02T04:32:36.245Z,2.78
2022-10-02T04:35:17.364Z,2.45
2022-10-02T04:38:02.797Z,2.30
2022-10-02T04:41:09.871Z,2.50
2022-10-02T04:44:04.173Z,3.17
2022-10-02T04:46:45.907Z,3.03
2022-10-02T04:49:33.793Z,2.92
2022-10-02T04:52:30.487Z,3.03
2022-10-02T04:55:25.608Z,3.08
2022-10-02T04:58:30.323Z,3.13
2022-10-02T05:01:36.116Z,2.63
2022-10-02T05:04:06.245Z,3.15
2022-10-02T05:07:12.360Z,2.97
2022-10-02T05:09:58.373Z,3.07
2022-10-02T05:15:41.948Z,2.45
2022-10-02T05:18:47.520Z,3.28
2022-10-02T05:21:35.931Z,2.85
2022-10-02T05:24:02.875Z,3.55
2022-10-02T05:26:36.018Z,3.20
2022-10-02T05:29:29.324Z,3.28
2022-10-02T05:32:15.687Z,2.83
2022-10-02T05:35:02.879Z,3.35
2022-10-02T05:37:45.908Z,2.92
2022-10-02T05:40:16.049Z,3.25
2022-10-02T05:42:51.470Z,2.90
2022-10-02T05:45:43.402Z,3.25
2022-10-02T05:48:23.242Z,3.60
2022-10-02T05:50:55.053Z,3.03
2022-10-02T05:53:24.840Z,3.53
2022-10-02T05:56:00.385Z,3.65
2022-10-02T06:01:06.517Z,3.28
2022-10-02T06:03:59.936Z,3.60
2022-10-02T06:06:39.148Z,3.75
2022-10-02T06:09:19.819Z,3.65
2022-10-02T06:11:52.646Z,3.10
2022-10-02T06:14:34.530Z,3.17
2022-10-02T06:17:07.693Z,3.08
2022-10-02T06:19:51.399Z,4.72
2022-10-02T06:22:23.643Z,3.20
2022-10-02T06:25:14.109Z,3.25
2022-10-02T06:28:12.296Z,3.50
2022-10-02T06:30:43.687Z,3.33
2022-10-02T06:33:22.397Z,3.80
2022-10-02T06:36:07.519Z,4.10
2022-10-02T06:38:50.808Z,4.60
2022-10-02T06:41:30.207Z,3.42
2022-10-02T06:44:13.407Z,4.13
2022-10-02T06:46:59.958Z,4.45
2022-10-02T06:49:51.787Z,4.75
2022-10-02T06:52:33.350Z,4.78
2022-10-02T06:55:25.864Z,4.45
2022-10-02T06:58:31.232Z,3.80
2022-10-02T07:01:25.071Z,3.38
2022-10-02T07:04:01.421Z,3.60
2022-10-02T07:06:40.364Z,3.15
2022-10-02T07:09:21.380Z,3.28
2022-10-02T07:11:56.348Z,2.75
2022-10-02T07:15:00.506Z,3.17
2022-10-02T07:17:38.253Z,3.03
2022-10-02T07:20:11.437Z,3.20
2022-10-02T07:22:46.142Z,3.08
2022-10-02T07:25:42.769Z,3.53
2022-10-02T07:31:07.108Z,3.72
2022-10-02T07:33:45.930Z,3.58
2022-10-02T07:36:24.408Z,3.22
2022-10-02T07:39:16.183Z,3.40
2022-10-02T07:42:00.716Z,3.30
2022-10-02T07:44:52.309Z,3.20
2022-10-02T07:47:43.901Z,3.28
2022-10-02T07:50:44.805Z,3.67
2022-10-02T07:53:44.926Z,3.20
2022-10-02T07:56:20.124Z,3.17
2022-10-02T07:58:54.570Z,2.42
2022-10-02T08:01:25.616Z,3.35
2022-10-02T08:03:58.597Z,2.80
2022-10-02T08:06:25.957Z,2.92
2022-10-02T08:09:05.693Z,2.80
2022-10-02T08:11:49.141Z,3.03
2022-10-02T08:14:22.985Z,4.38
2022-10-02T08:16:54.109Z,2.53
2022-10-02T08:19:41.334Z,2.50
2022-10-02T08:22:29.399Z,2.88
2022-10-02T08:25:20.849Z,2.55
2022-10-02T08:27:50.122Z,2.90
2022-10-02T08:30:17.263Z,2.83
2022-10-02T08:32:45.087Z,2.83
2022-10-02T08:35:14.367Z,2.70
2022-10-02T08:38:19.879Z,2.95
2022-10-02T08:41:00.553Z,2.92
2022-10-02T08:43:46.164Z,2.72
2022-10-02T08:46:58.403Z,2.58
2022-10-02T08:50:01.137Z,2.95
2022-10-02T08:52:45.351Z,2.88
2022-10-02T08:55:30.447Z,5.70
2022-10-02T08:58:27.868Z,2.88
2022-10-02T09:01:25.958Z,2.60
2022-10-02T09:04:16.920Z,2.83
2022-10-02T09:07:02.424Z,2.25
2022-10-02T09:09:47.340Z,2.30
2022-10-02T09:12:48.477Z,2.78
2022-10-02T09:15:39.503Z,2.47
2022-10-02T09:18:23.929Z,3.45
2022-10-02T09:21:05.971Z,2.72
2022-10-02T09:24:06.578Z,2.72
2022-10-02T09:26:45.517Z,3.10
2022-10-02T09:29:30.893Z,3.08
2022-10-02T09:32:22.845Z,3.40
2022-10-02T09:35:28.328Z,2.90
2022-10-02T09:38:07.085Z,3.22
2022-10-02T09:40:58.508Z,2.90
2022-10-02T09:44:03.575Z,2.95
2022-10-02T09:47:14.441Z,2.60
2022-10-02T09:50:18.117Z,3.33
2022-10-02T09:53:07.606Z,3.67
2022-10-02T09:56:17.185Z,2.70
2022-10-02T09:59:01.279Z,2.53
2022-10-02T10:01:52.030Z,2.20
2022-10-02T10:04:21.813Z,3.15
2022-10-02T10:07:19.067Z,2.30
2022-10-02T10:10:12.409Z,1.90
2022-10-02T10:12:50.933Z,2.58
2022-10-02T10:15:36.475Z,2.60
2022-10-02T10:18:42.745Z,2.42
2022-10-02T10:21:43.360Z,2.80
2022-10-02T10:24:19.263Z,3.00
2022-10-02T10:27:16.796Z,3.03
2022-10-02T10:30:21.453Z,3.03
2022-10-02T10:33:08.253Z,2.42
2022-10-02T10:36:50.194Z,3.38
2022-10-02T10:39:44.338Z,3.17
2022-10-02T10:42:56.067Z,3.10
2022-10-02T10:45:55.129Z,4.50
2022-10-02T10:49:23.338Z,2.78
2022-10-02T10:52:22.635Z,2.65
2022-10-02T10:55:10.959Z,2.38
2022-10-02T10:57:43.753Z,2.47
2022-10-02T11:00:17.005Z,2.70
2022-10-02T11:03:04.613Z,2.92
2022-10-02T11:06:08.083Z,2.83
2022-10-02T11:08:45.464Z,3.28
2022-10-02T11:11:31.598Z,2.60
2022-10-02T11:17:02.504Z,1.58
2022-10-02T11:19:48.083Z,2.25
2022-10-02T11:22:40.880Z,1.85
2022-10-02T11:25:29.636Z,2.67
2022-10-02T11:28:26.398Z,3.10
2022-10-02T11:31:17.490Z,2.00
2022-10-02T11:34:01.857Z,1.85
2022-10-02T11:36:42.531Z,2.35
2022-10-02T11:39:41.332Z,2.72
2022-10-02T11:42:26.920Z,2.22
2022-10-02T11:45:08.724Z,1.65
2022-10-02T11:47:59.743Z,1.85
2022-10-02T11:50:53.715Z,2.28
2022-10-02T11:53:36.055Z,2.90
2022-10-02T11:56:24.045Z,2.42
2022-10-02T11:58:56.533Z,2.72
2022-10-02T12:01:45.342Z,2.15
2022-10-02T12:04:53.023Z,2.17
2022-10-02T12:07:34.850Z,3.05
2022-10-02T12:10:20.421Z,3.53
2022-10-02T12:13:14.980Z,2.38
2022-10-02T12:15:56.937Z,1.80
2022-10-02T12:18:55.482Z,1.58
2022-10-02T12:22:14.430Z,1.75
2022-10-02T12:25:30.303Z,1.85
2022-10-02T12:28:17.041Z,2.05
2022-10-02T12:31:07.445Z,2.10
2022-10-02T12:33:56.658Z,2.75
2022-10-02T12:36:58.237Z,2.05
2022-10-02T12:39:47.256Z,2.40
2022-10-02T12:42:33.031Z,2.80
2022-10-02T12:45:43.899Z,2.75
2022-10-02T12:48:14.171Z,2.58
2022-10-02T12:51:08.230Z,2.47
2022-10-02T12:53:53.860Z,2.42
2022-10-02T12:56:48.564Z,2.55
2022-10-02T12:59:35.747Z,2.60
2022-10-02T13:02:59.640Z,2.22
2022-10-02T13:05:42.542Z,2.65
2022-10-02T13:08:20.827Z,2.80
2022-10-02T13:11:22.293Z,1.90
2022-10-02T13:14:15.542Z,1.70
2022-10-02T13:16:46.650Z,2.55
2022-10-02T13:19:19.258Z,2.63
2022-10-02T13:21:47.301Z,2.53
2022-10-02T13:24:26.281Z,2.30
2022-10-02T13:27:02.370Z,2.95
2022-10-02T13:29:48.055Z,3.15
2022-10-02T13:32:53.997Z,2.50
2022-10-02T13:35:27.072Z,2.30
2022-10-02T13:38:13.116Z,2.10
2022-10-02T13:41:01.925Z,2.28
2022-10-02T13:43:50.030Z,2.47
2022-10-02T13:46:37.953Z,2.47
2022-10-02T13:49:20.891Z,2.05
2022-10-02T13:51:50.935Z,2.53
2022-10-02T13:54:37.419Z,2.15
2022-10-02T13:57:38.921Z,2.38
2022-10-02T14:00:44.310Z,2.33
2022-10-02T14:03:26.870Z,1.88
2022-10-02T14:06:12.177Z,1.85
2022-10-02T14:09:06.931Z,1.92
2022-10-02T14:11:42.181Z,2.15
2022-10-02T14:14:43.168Z,2.40
2022-10-02T14:17:19.635Z,2.30
2022-10-02T14:19:52.715Z,2.20
2022-10-02T14:23:05.668Z,2.33
2022-10-02T14:26:01.132Z,2.00
2022-10-02T14:28:44.852Z,2.80
2022-10-02T14:31:33.540Z,2.08
2022-10-02T14:34:24.893Z,1.80
2022-10-02T14:37:31.103Z,2.42
2022-10-02T14:40:01.164Z,1.80
2022-10-02T14:42:47.090Z,1.90
2022-10-02T14:45:58.474Z,1.95
2022-10-02T14:48:44.116Z,2.55
2022-10-02T14:54:01.945Z,1.55
2022-10-02T14:56:51.120Z,1.95
2022-10-02T14:59:42.755Z,1.80
2022-10-02T15:02:09.649Z,1.60
2022-10-02T15:04:55.378Z,2.00
2022-10-02T15:07:26.061Z,1.83
2022-10-02T15:10:13.686Z,2.13
2022-10-02T15:13:06.924Z,2.13
2022-10-02T15:16:14.705Z,2.05
2022-10-02T15:18:55.152Z,1.80
2022-10-02T15:21:37.713Z,2.47
2022-10-02T15:24:42.874Z,2.08
2022-10-02T15:27:32.506Z,2.10
2022-10-02T15:30:15.248Z,2.08
2022-10-02T15:33:10.919Z,2.40
2022-10-02T15:36:19.374Z,2.05
2022-10-02T15:38:57.060Z,2.42
2022-10-02T15:41:45.613Z,2.28
2022-10-02T15:44:45.214Z,2.15
2022-10-02T15:47:27.737Z,2.13
2022-10-02T15:50:19.392Z,2.42
2022-10-02T15:52:59.178Z,2.25
2022-10-02T15:55:43.995Z,2.13
2022-10-02T15:58:17.440Z,2.03
2022-10-02T16:01:04.079Z,1.70
2022-10-02T16:03:53.580Z,1.88
2022-10-02T16:06:41.388Z,1.90
2022-10-02T16:09:49.203Z,1.70
2022-10-02T16:12:34.949Z,2.00
2022-10-02T16:15:14.032Z,1.90
2022-10-02T16:17:55.826Z,2.08
2022-10-02T16:20:42.238Z,1.63
2022-10-02T16:23:36.402Z,1.80
2022-10-02T16:26:26.649Z,2.38
2022-10-02T16:29:07.299Z,2.13
2022-10-02T16:32:18.440Z,1.38
2022-10-02T16:35:18.144Z,1.73
2022-10-02T16:37:47.922Z,2.40
2022-10-02T16:40:33.460Z,2.25
2022-10-02T16:46:21.152Z,1.80
2022-10-02T16:49:17.593Z,2.13
2022-10-02T16:51:57.732Z,1.88
2022-10-02T16:54:46.005Z,2.38
2022-10-02T16:58:08.280Z,2.70
2022-10-02T17:00:51.670Z,1.63
2022-10-02T17:03:28.957Z,1.83
2022-10-02T17:06:32.434Z,1.90
2022-10-02T17:09:14.734Z,2.85
2022-10-02T17:12:11.009Z,2.20
2022-10-02T17:15:00.945Z,2.30
2022-10-02T17:17:42.641Z,1.90
2022-10-02T17:20:22.486Z,2.08
2022-10-02T17:23:01.371Z,2.35
2022-10-02T17:25:43.896Z,2.00
2022-10-02T17:28:29.944Z,2.42
2022-10-02T17:31:22.194Z,2.80
2022-10-02T17:33:56.945Z,3.22
2022-10-02T17:36:36.291Z,2.60
2022-10-02T17:39:29.799Z,2.72
2022-10-02T17:42:05.798Z,2.60
2022-10-02T17:44:34.004Z,2.75
2022-10-02T17:47:08.080Z,2.92
2022-10-02T17:49:48.174Z,2.53
2022-10-02T17:53:01.831Z,3.30
2022-10-02T17:56:15.189Z,3.05
2022-10-02T17:59:27.363Z,3.38
2022-10-02T18:02:14.760Z,3.17
2022-10-02T18:04:49.043Z,2.83
2022-10-02T18:07:34.937Z,3.00
2022-10-02T18:10:16.853Z,2.85
2022-10-02T18:12:51.758Z,3.97
2022-10-02T18:15:45.118Z,5.45
2022-10-02T18:18:40.231Z,4.95
2022-10-02T18:21:20.527Z,3.92
2022-10-02T18:24:21.739Z,3.70
2022-10-02T18:27:16.100Z,3.70
2022-10-02T18:29:49.470Z,3.60
2022-10-02T18:32:36.207Z,3.60
2022-10-02T18:35:22.211Z,3.35
2022-10-02T18:38:22.796Z,3.65
2022-10-02T18:40:49.820Z,4.80
2022-10-02T18:43:31.391Z,3.63
2022-10-02T18:45:58.897Z,4.10
2022-10-02T18:48:44.660Z,4.00
2022-10-02T18:51:20.169Z,4.40
2022-10-02T18:56:26.112Z,3.05
2022-10-02T18:59:08.125Z,3.58
2022-10-02T19:01:51.721Z,2.95
2022-10-02T19:04:57.326Z,2.95
2022-10-02T19:07:59.485Z,2.72
2022-10-02T19:10:48.009Z,2.90
2022-10-02T19:13:18.184Z,2.53
2022-10-02T19:15:49.493Z,2.50
2022-10-02T19:18:18.855Z,2.53
2022-10-02T19:20:57.754Z,2.28
2022-10-02T19:23:27.553Z,2.92
2022-10-02T19:25:57.255Z,3.45
2022-10-02T19:28:28.634Z,2.70
2022-10-02T19:31:03.880Z,3.08
2022-10-02T19:33:45.168Z,3.22
2022-10-02T19:36:19.894Z,1.95
2022-10-02T19:39:02.935Z,1.92
2022-10-02T19:41:35.406Z,2.47
2022-10-02T19:44:07.513Z,2.38
2022-10-02T19:46:44.667Z,2.65
2022-10-02T19:49:31.043Z,2.30
2022-10-02T19:51:58.822Z,3.05
2022-10-02T19:54:38.521Z,2.85
2022-10-02T19:57:24.559Z,2.50
2022-10-02T19:59:53.709Z,1.98
2022-10-02T20:02:32.914Z,2.55
2022-10-02T20:05:03.159Z,2.88
2022-10-02T20:07:34.773Z,2.70
2022-10-02T20:10:11.678Z,3.15
2022-10-02T20:12:46.195Z,3.05
2022-10-02T20:15:42.442Z,2.22
2022-10-02T20:18:11.262Z,2.30
2022-10-02T20:20:40.230Z,1.45
2022-10-02T20:23:22.525Z,3.28
2022-10-02T20:25:56.487Z,2.85
2022-10-02T20:28:56.299Z,1.73
2022-10-02T20:31:33.476Z,2.22
2022-10-02T20:34:04.631Z,2.42
2022-10-02T20:36:41.106Z,1.50
2022-10-02T20:39:13.864Z,1.80
2022-10-02T20:41:43.927Z,1.50
2022-10-02T20:44:13.108Z,2.45
2022-10-02T20:46:49.360Z,2.15
2022-10-02T20:49:43.644Z,2.65
2022-10-02T20:52:35.170Z,2.20
2022-10-02T20:55:09.340Z,2.25
2022-10-02T20:58:23.679Z,2.65
2022-10-02T21:00:50.624Z,2.72
2022-10-02T21:03:36.156Z,2.40
2022-10-02T21:06:22.156Z,2.60
2022-10-02T21:08:52.283Z,2.83
2022-10-02T21:11:54.419Z,1.52
2022-10-02T21:15:05.933Z,2.08
2022-10-02T21:18:04.709Z,1.95
2022-10-02T21:21:07.024Z,2.85
2022-10-02T21:23:36.862Z,2.22
2022-10-02T21:26:27.061Z,2.67
2022-10-02T21:29:11.753Z,1.95
2022-10-02T21:31:56.376Z,1.70
2022-10-02T21:34:42.032Z,2.47
2022-10-02T21:37:25.668Z,2.08
2022-10-02T21:40:11.026Z,2.17
2022-10-02T21:42:43.998Z,1.52
2022-10-02T21:45:16.862Z,2.20
2022-10-02T21:48:21.216Z,1.70
2022-10-02T21:51:19.200Z,1.67
2022-10-02T21:54:24.016Z,1.60
2022-10-02T21:57:09.636Z,2.75
2022-10-02T21:59:58.291Z,2.53
2022-10-02T22:02:39.791Z,2.10
2022-10-02T22:05:40.417Z,1.77
2022-10-02T22:08:28.481Z,2.22
2022-10-02T22:11:12.243Z,1.60
2022-10-02T22:13:43.209Z,1.60
2022-10-02T22:16:37.994Z,2.10
2022-10-02T22:19:27.497Z,1.63
2022-10-02T22:22:12.260Z,2.10
2022-10-02T22:24:55.781Z,1.67
2022-10-02T22:27:51.914Z,1.60
2022-10-02T22:30:26.593Z,1.95
2022-10-02T22:33:11.580Z,2.17
2022-10-02T22:36:25.465Z,1.73
2022-10-02T22:39:03.653Z,1.45
2022-10-02T22:41:50.072Z,2.03
2022-10-02T22:44:17.050Z,1.88
2022-10-02T22:47:07.751Z,1.90
2022-10-02T22:49:56.632Z,2.22
2022-10-02T22:52:23.522Z,1.83
2022-10-02T22:55:00.757Z,1.50
2022-10-02T22:57:51.516Z,2.17
2022-10-02T23:00:30.213Z,1.73
2022-10-02T23:03:20.623Z,2.67
2022-10-02T23:05:52.293Z,2.05
2022-10-02T23:08:46.850Z,1.73
2022-10-02T23:11:55.870Z,2.72
2022-10-02T23:14:27.220Z,2.97
2022-10-02T23:17:07.522Z,1.90
2022-10-02T23:19:45.674Z,2.15
2022-10-02T23:22:39.894Z,2.17
2022-10-02T23:25:20.415Z,1.88
2022-10-02T23:28:02.655Z,2.80
2022-10-02T23:30:33.740Z,2.97
2022-10-02T23:33:06.959Z,3.03
2022-10-02T23:35:57.317Z,2.05
2022-10-02T23:38:44.545Z,2.30
2022-10-02T23:41:37.454Z,2.03
2022-10-02T23:44:04.634Z,1.83
2022-10-02T23:46:40.983Z,2.13
2022-10-02T23:49:10.858Z,1.90
2022-10-02T23:51:43.752Z,2.03
2022-10-02T23:54:16.523Z,2.53
2022-10-02T23:57:05.347Z,2.05
2022-10-02T23:59:56.722Z,1.67
